sensor_id;sensor_type;location;lat;lon;timestamp;P1;durP1;ratioP1;P2;durP2;ratioP2
3941;SDS011;1985;48.592;8.850;2023-01-10T00:02:01;8.00;;;1.00;;
3941;SDS011;1985;48.592;8.850;2023-01-10T00:04:27;7.50;;;0.90;;
3941;SDS011;1985;48.592;8.850;2023-01-10T00:06:54;8.30;;;1.10;;
3941;SDS011;1985;48.592;8.850;2023-01-10T00:09:19;7.40;;;0.80;;
3941;SDS011;1985;48.592;8.850;2023-01-10T00:11:45;11.00;;;1.20;;
3941;SDS011;1985;48.592;8.850;2023-01-10T00:14:29;9.40;;;1.00;;
3941;SDS011;1985;48.592;8.850;2023-01-10T00:16:57;7.80;;;1.10;;
3941;SDS011;1985;48.592;8.850;2023-01-10T00:19:23;9.50;;;1.07;;
3941;SDS011;1985;48.592;8.850;2023-01-10T00:21:48;8.25;;;0.82;;
3941;SDS011;1985;48.592;8.850;2023-01-10T00:24:14;8.30;;;1.10;;
3941;SDS011;1985;48.592;8.850;2023-01-10T00:26:47;7.70;;;1.00;;
3941;SDS011;1985;48.592;8.850;2023-01-10T00:29:16;9.95;;;1.73;;
3941;SDS011;1985;48.592;8.850;2023-01-10T00:31:46;16.67;;;5.22;;
3941;SDS011;1985;48.592;8.850;2023-01-10T00:34:12;15.25;;;3.38;;
3941;SDS011;1985;48.592;8.850;2023-01-10T00:36:38;10.48;;;1.88;;
3941;SDS011;1985;48.592;8.850;2023-01-10T00:39:04;9.57;;;1.88;;
3941;SDS011;1985;48.592;8.850;2023-01-10T00:41:30;9.00;;;1.20;;
3941;SDS011;1985;48.592;8.850;2023-01-10T00:44:14;9.50;;;1.80;;
3941;SDS011;1985;48.592;8.850;2023-01-10T00:46:39;9.57;;;1.50;;
3941;SDS011;1985;48.592;8.850;2023-01-10T00:49:05;14.03;;;3.43;;
3941;SDS011;1985;48.592;8.850;2023-01-10T00:51:32;10.43;;;1.85;;
3941;SDS011;1985;48.592;8.850;2023-01-10T00:53:58;8.20;;;1.10;;
3941;SDS011;1985;48.592;8.850;2023-01-10T00:56:24;9.25;;;1.95;;
3941;SDS011;1985;48.592;8.850;2023-01-10T00:58:49;18.70;;;3.40;;
3941;SDS011;1985;48.592;8.850;2023-01-10T01:01:15;29.53;;;9.57;;
3941;SDS011;1985;48.592;8.850;2023-01-10T01:03:40;30.93;;;11.37;;
3941;SDS011;1985;48.592;8.850;2023-01-10T01:06:06;27.88;;;8.15;;
3941;SDS011;1985;48.592;8.850;2023-01-10T01:08:32;13.75;;;3.00;;
3941;SDS011;1985;48.592;8.850;2023-01-10T01:10:58;8.65;;;1.50;;
3941;SDS011;1985;48.592;8.850;2023-01-10T01:13:24;10.50;;;1.63;;
3941;SDS011;1985;48.592;8.850;2023-01-10T01:15:49;9.60;;;1.10;;
3941;SDS011;1985;48.592;8.850;2023-01-10T01:18:17;7.95;;;1.13;;
3941;SDS011;1985;48.592;8.850;2023-01-10T01:20:45;7.90;;;1.10;;
3941;SDS011;1985;48.592;8.850;2023-01-10T01:23:12;7.90;;;0.98;;
3941;SDS011;1985;48.592;8.850;2023-01-10T01:25:39;8.10;;;1.10;;
3941;SDS011;1985;48.592;8.850;2023-01-10T01:28:04;8.18;;;1.30;;
3941;SDS011;1985;48.592;8.850;2023-01-10T01:30:30;8.20;;;1.40;;
3941;SDS011;1985;48.592;8.850;2023-01-10T01:32:56;9.55;;;1.60;;
3941;SDS011;1985;48.592;8.850;2023-01-10T01:35:22;8.32;;;1.10;;
3941;SDS011;1985;48.592;8.850;2023-01-10T01:37:49;8.40;;;1.00;;
3941;SDS011;1985;48.592;8.850;2023-01-10T01:40:16;7.90;;;1.00;;
3941;SDS011;1985;48.592;8.850;2023-01-10T01:42:43;7.60;;;0.90;;
3941;SDS011;1985;48.592;8.850;2023-01-10T01:47:48;8.43;;;0.98;;
3941;SDS011;1985;48.592;8.850;2023-01-10T01:53:09;7.63;;;0.80;;
3941;SDS011;1985;48.592;8.850;2023-01-10T01:55:39;8.60;;;1.10;;
3941;SDS011;1985;48.592;8.850;2023-01-10T01:58:08;7.50;;;0.80;;
3941;SDS011;1985;48.592;8.850;2023-01-10T02:00:39;9.13;;;0.95;;
3941;SDS011;1985;48.592;8.850;2023-01-10T02:03:05;9.90;;;0.90;;
3941;SDS011;1985;48.592;8.850;2023-01-10T02:05:32;7.50;;;0.75;;
3941;SDS011;1985;48.592;8.850;2023-01-10T02:08:00;7.80;;;0.90;;
3941;SDS011;1985;48.592;8.850;2023-01-10T02:10:35;8.30;;;0.90;;
3941;SDS011;1985;48.592;8.850;2023-01-10T02:13:03;7.33;;;0.70;;
3941;SDS011;1985;48.592;8.850;2023-01-10T02:15:30;7.60;;;0.80;;
3941;SDS011;1985;48.592;8.850;2023-01-10T02:17:56;7.60;;;0.80;;
3941;SDS011;1985;48.592;8.850;2023-01-10T02:20:23;7.60;;;0.90;;
3941;SDS011;1985;48.592;8.850;2023-01-10T02:32:08;7.80;;;0.75;;
3941;SDS011;1985;48.592;8.850;2023-01-10T02:40:22;7.40;;;0.70;;
3941;SDS011;1985;48.592;8.850;2023-01-10T02:43:36;7.90;;;0.80;;
3941;SDS011;1985;48.592;8.850;2023-01-10T02:46:06;8.20;;;0.90;;
3941;SDS011;1985;48.592;8.850;2023-01-10T02:48:36;7.40;;;0.80;;
3941;SDS011;1985;48.592;8.850;2023-01-10T02:53:42;7.30;;;0.70;;
3941;SDS011;1985;48.592;8.850;2023-01-10T02:59:07;7.80;;;0.80;;
3941;SDS011;1985;48.592;8.850;2023-01-10T03:09:23;7.75;;;0.70;;
3941;SDS011;1985;48.592;8.850;2023-01-10T03:11:56;7.40;;;0.70;;
3941;SDS011;1985;48.592;8.850;2023-01-10T03:14:32;7.30;;;0.70;;
3941;SDS011;1985;48.592;8.850;2023-01-10T03:17:01;8.02;;;0.70;;
3941;SDS011;1985;48.592;8.850;2023-01-10T03:19:32;7.30;;;0.70;;
3941;SDS011;1985;48.592;8.850;2023-01-10T03:22:01;7.50;;;0.70;;
3941;SDS011;1985;48.592;8.850;2023-01-10T03:24:31;7.30;;;0.70;;
3941;SDS011;1985;48.592;8.850;2023-01-10T03:27:19;7.30;;;0.70;;
3941;SDS011;1985;48.592;8.850;2023-01-10T03:32:18;7.80;;;0.70;;
3941;SDS011;1985;48.592;8.850;2023-01-10T03:34:47;7.30;;;0.70;;
3941;SDS011;1985;48.592;8.850;2023-01-10T03:37:16;7.40;;;0.70;;
3941;SDS011;1985;48.592;8.850;2023-01-10T03:45:15;7.90;;;0.80;;
3941;SDS011;1985;48.592;8.850;2023-01-10T03:47:46;7.30;;;0.70;;
3941;SDS011;1985;48.592;8.850;2023-01-10T03:50:19;7.50;;;0.70;;
3941;SDS011;1985;48.592;8.850;2023-01-10T03:52:46;7.30;;;0.60;;
3941;SDS011;1985;48.592;8.850;2023-01-10T03:55:13;7.60;;;0.70;;
3941;SDS011;1985;48.592;8.850;2023-01-10T03:57:48;7.30;;;0.60;;
3941;SDS011;1985;48.592;8.850;2023-01-10T04:00:14;7.47;;;0.70;;
3941;SDS011;1985;48.592;8.850;2023-01-10T04:02:40;7.70;;;0.70;;
3941;SDS011;1985;48.592;8.850;2023-01-10T04:05:06;7.30;;;0.70;;
3941;SDS011;1985;48.592;8.850;2023-01-10T04:07:32;7.50;;;0.80;;
3941;SDS011;1985;48.592;8.850;2023-01-10T04:09:58;7.30;;;0.70;;
3941;SDS011;1985;48.592;8.850;2023-01-10T04:12:24;7.40;;;0.90;;
3941;SDS011;1985;48.592;8.850;2023-01-10T04:14:50;7.30;;;0.70;;
3941;SDS011;1985;48.592;8.850;2023-01-10T04:17:16;7.30;;;0.60;;
3941;SDS011;1985;48.592;8.850;2023-01-10T04:19:42;9.30;;;0.70;;
3941;SDS011;1985;48.592;8.850;2023-01-10T04:22:08;7.80;;;1.10;;
3941;SDS011;1985;48.592;8.850;2023-01-10T04:24:35;8.10;;;0.70;;
3941;SDS011;1985;48.592;8.850;2023-01-10T04:27:01;7.80;;;0.80;;
3941;SDS011;1985;48.592;8.850;2023-01-10T04:29:27;7.60;;;0.90;;
3941;SDS011;1985;48.592;8.850;2023-01-10T04:31:52;7.60;;;0.80;;
3941;SDS011;1985;48.592;8.850;2023-01-10T04:34:18;7.50;;;0.80;;
3941;SDS011;1985;48.592;8.850;2023-01-10T04:36:47;7.90;;;0.80;;
3941;SDS011;1985;48.592;8.850;2023-01-10T04:39:13;7.80;;;0.80;;
3941;SDS011;1985;48.592;8.850;2023-01-10T04:41:39;9.45;;;1.40;;
3941;SDS011;1985;48.592;8.850;2023-01-10T04:44:05;16.80;;;2.00;;
3941;SDS011;1985;48.592;8.850;2023-01-10T04:46:31;9.70;;;1.60;;
3941;SDS011;1985;48.592;8.850;2023-01-10T04:48:57;12.17;;;1.70;;
3941;SDS011;1985;48.592;8.850;2023-01-10T04:51:23;14.60;;;1.77;;
3941;SDS011;1985;48.592;8.850;2023-01-10T04:53:49;12.30;;;1.75;;
3941;SDS011;1985;48.592;8.850;2023-01-10T04:56:16;13.03;;;1.47;;
3941;SDS011;1985;48.592;8.850;2023-01-10T04:58:43;9.43;;;1.40;;
3941;SDS011;1985;48.592;8.850;2023-01-10T05:01:16;8.85;;;1.50;;
3941;SDS011;1985;48.592;8.850;2023-01-10T05:03:46;12.98;;;1.58;;
3941;SDS011;1985;48.592;8.850;2023-01-10T05:06:13;9.23;;;1.23;;
3941;SDS011;1985;48.592;8.850;2023-01-10T05:08:39;9.52;;;1.70;;
3941;SDS011;1985;48.592;8.850;2023-01-10T05:11:04;14.10;;;1.70;;
3941;SDS011;1985;48.592;8.850;2023-01-10T05:13:31;11.40;;;1.90;;
3941;SDS011;1985;48.592;8.850;2023-01-10T05:15:57;14.63;;;1.80;;
3941;SDS011;1985;48.592;8.850;2023-01-10T05:18:24;14.40;;;1.90;;
3941;SDS011;1985;48.592;8.850;2023-01-10T05:20:50;11.32;;;1.40;;
3941;SDS011;1985;48.592;8.850;2023-01-10T05:23:16;11.98;;;1.58;;
3941;SDS011;1985;48.592;8.850;2023-01-10T05:25:42;19.70;;;2.08;;
3941;SDS011;1985;48.592;8.850;2023-01-10T05:28:08;13.00;;;1.80;;
3941;SDS011;1985;48.592;8.850;2023-01-10T05:30:34;13.52;;;2.10;;
3941;SDS011;1985;48.592;8.850;2023-01-10T05:32:59;10.40;;;2.20;;
3941;SDS011;1985;48.592;8.850;2023-01-10T05:35:27;21.20;;;2.23;;
3941;SDS011;1985;48.592;8.850;2023-01-10T05:37:53;14.83;;;1.90;;
3941;SDS011;1985;48.592;8.850;2023-01-10T05:40:19;14.40;;;1.60;;
3941;SDS011;1985;48.592;8.850;2023-01-10T05:42:44;13.53;;;1.80;;
3941;SDS011;1985;48.592;8.850;2023-01-10T05:45:10;15.20;;;2.40;;
3941;SDS011;1985;48.592;8.850;2023-01-10T05:47:36;16.20;;;1.83;;
3941;SDS011;1985;48.592;8.850;2023-01-10T05:50:02;12.00;;;1.90;;
3941;SDS011;1985;48.592;8.850;2023-01-10T05:52:28;14.33;;;2.30;;
3941;SDS011;1985;48.592;8.850;2023-01-10T05:54:53;12.90;;;2.10;;
3941;SDS011;1985;48.592;8.850;2023-01-10T05:57:19;19.30;;;4.60;;
3941;SDS011;1985;48.592;8.850;2023-01-10T05:59:46;12.90;;;1.53;;
3941;SDS011;1985;48.592;8.850;2023-01-10T06:02:11;18.00;;;2.60;;
3941;SDS011;1985;48.592;8.850;2023-01-10T06:04:37;20.40;;;1.77;;
3941;SDS011;1985;48.592;8.850;2023-01-10T06:07:03;12.88;;;2.10;;
3941;SDS011;1985;48.592;8.850;2023-01-10T06:09:28;14.10;;;1.90;;
3941;SDS011;1985;48.592;8.850;2023-01-10T06:11:54;13.40;;;1.50;;
3941;SDS011;1985;48.592;8.850;2023-01-10T06:14:20;14.20;;;2.13;;
3941;SDS011;1985;48.592;8.850;2023-01-10T06:16:46;14.10;;;1.60;;
3941;SDS011;1985;48.592;8.850;2023-01-10T06:19:11;14.10;;;1.95;;
3941;SDS011;1985;48.592;8.850;2023-01-10T06:21:37;12.57;;;2.17;;
3941;SDS011;1985;48.592;8.850;2023-01-10T06:24:03;12.40;;;2.10;;
3941;SDS011;1985;48.592;8.850;2023-01-10T06:26:29;10.10;;;1.60;;
3941;SDS011;1985;48.592;8.850;2023-01-10T06:28:54;14.93;;;2.20;;
3941;SDS011;1985;48.592;8.850;2023-01-10T06:31:20;14.25;;;2.30;;
3941;SDS011;1985;48.592;8.850;2023-01-10T06:33:45;16.30;;;2.30;;
3941;SDS011;1985;48.592;8.850;2023-01-10T06:36:14;11.60;;;2.50;;
3941;SDS011;1985;48.592;8.850;2023-01-10T06:38:40;14.00;;;2.50;;
3941;SDS011;1985;48.592;8.850;2023-01-10T06:41:05;13.87;;;3.20;;
3941;SDS011;1985;48.592;8.850;2023-01-10T06:43:40;13.15;;;2.70;;
3941;SDS011;1985;48.592;8.850;2023-01-10T06:46:07;12.13;;;3.30;;
3941;SDS011;1985;48.592;8.850;2023-01-10T06:48:34;16.05;;;2.67;;
3941;SDS011;1985;48.592;8.850;2023-01-10T06:51:01;13.40;;;1.80;;
3941;SDS011;1985;48.592;8.850;2023-01-10T06:53:27;10.75;;;1.80;;
3941;SDS011;1985;48.592;8.850;2023-01-10T06:55:56;12.30;;;1.70;;
3941;SDS011;1985;48.592;8.850;2023-01-10T06:58:22;12.13;;;1.73;;
3941;SDS011;1985;48.592;8.850;2023-01-10T07:00:48;9.30;;;1.40;;
3941;SDS011;1985;48.592;8.850;2023-01-10T07:03:14;11.45;;;1.60;;
3941;SDS011;1985;48.592;8.850;2023-01-10T07:05:39;9.93;;;1.60;;
3941;SDS011;1985;48.592;8.850;2023-01-10T07:08:05;11.18;;;1.50;;
3941;SDS011;1985;48.592;8.850;2023-01-10T07:10:31;13.30;;;1.97;;
3941;SDS011;1985;48.592;8.850;2023-01-10T07:12:56;12.02;;;1.90;;
3941;SDS011;1985;48.592;8.850;2023-01-10T07:15:23;10.70;;;1.97;;
3941;SDS011;1985;48.592;8.850;2023-01-10T07:17:49;10.95;;;1.63;;
3941;SDS011;1985;48.592;8.850;2023-01-10T07:20:15;15.27;;;2.08;;
3941;SDS011;1985;48.592;8.850;2023-01-10T07:22:41;15.98;;;2.08;;
3941;SDS011;1985;48.592;8.850;2023-01-10T07:25:07;9.70;;;1.70;;
3941;SDS011;1985;48.592;8.850;2023-01-10T07:27:33;13.77;;;1.80;;
3941;SDS011;1985;48.592;8.850;2023-01-10T07:29:58;8.73;;;1.40;;
3941;SDS011;1985;48.592;8.850;2023-01-10T07:32:24;11.27;;;1.80;;
3941;SDS011;1985;48.592;8.850;2023-01-10T07:34:50;11.02;;;1.88;;
3941;SDS011;1985;48.592;8.850;2023-01-10T07:37:16;11.32;;;2.00;;
3941;SDS011;1985;48.592;8.850;2023-01-10T07:39:41;14.17;;;2.13;;
3941;SDS011;1985;48.592;8.850;2023-01-10T07:42:10;9.27;;;1.45;;
3941;SDS011;1985;48.592;8.850;2023-01-10T07:44:36;12.23;;;1.70;;
3941;SDS011;1985;48.592;8.850;2023-01-10T07:47:02;17.83;;;1.90;;
3941;SDS011;1985;48.592;8.850;2023-01-10T07:49:28;12.73;;;1.70;;
3941;SDS011;1985;48.592;8.850;2023-01-10T07:51:53;10.23;;;1.93;;
3941;SDS011;1985;48.592;8.850;2023-01-10T07:54:19;13.83;;;1.70;;
3941;SDS011;1985;48.592;8.850;2023-01-10T07:56:45;11.57;;;1.70;;
3941;SDS011;1985;48.592;8.850;2023-01-10T07:59:11;10.43;;;1.73;;
3941;SDS011;1985;48.592;8.850;2023-01-10T08:01:38;12.57;;;1.75;;
3941;SDS011;1985;48.592;8.850;2023-01-10T08:04:03;10.55;;;1.52;;
3941;SDS011;1985;48.592;8.850;2023-01-10T08:06:29;12.67;;;1.80;;
3941;SDS011;1985;48.592;8.850;2023-01-10T08:08:55;14.90;;;2.08;;
3941;SDS011;1985;48.592;8.850;2023-01-10T08:11:21;14.73;;;1.70;;
3941;SDS011;1985;48.592;8.850;2023-01-10T08:13:47;11.30;;;1.60;;
3941;SDS011;1985;48.592;8.850;2023-01-10T08:16:12;11.93;;;2.10;;
3941;SDS011;1985;48.592;8.850;2023-01-10T08:18:39;12.27;;;1.80;;
3941;SDS011;1985;48.592;8.850;2023-01-10T08:21:07;12.50;;;3.00;;
3941;SDS011;1985;48.592;8.850;2023-01-10T08:23:33;15.02;;;2.72;;
3941;SDS011;1985;48.592;8.850;2023-01-10T08:25:59;18.45;;;3.00;;
3941;SDS011;1985;48.592;8.850;2023-01-10T08:28:25;11.45;;;2.30;;
3941;SDS011;1985;48.592;8.850;2023-01-10T08:30:51;13.00;;;2.10;;
3941;SDS011;1985;48.592;8.850;2023-01-10T08:33:19;15.60;;;2.67;;
3941;SDS011;1985;48.592;8.850;2023-01-10T08:35:47;10.68;;;2.15;;
3941;SDS011;1985;48.592;8.850;2023-01-10T08:38:13;9.25;;;1.60;;
3941;SDS011;1985;48.592;8.850;2023-01-10T08:40:39;14.32;;;2.28;;
3941;SDS011;1985;48.592;8.850;2023-01-10T08:43:05;11.83;;;1.73;;
3941;SDS011;1985;48.592;8.850;2023-01-10T08:45:33;12.13;;;2.08;;
3941;SDS011;1985;48.592;8.850;2023-01-10T08:48:00;12.65;;;1.92;;
3941;SDS011;1985;48.592;8.850;2023-01-10T08:50:26;16.40;;;1.88;;
3941;SDS011;1985;48.592;8.850;2023-01-10T08:52:51;12.40;;;2.00;;
3941;SDS011;1985;48.592;8.850;2023-01-10T08:55:17;12.00;;;1.80;;
3941;SDS011;1985;48.592;8.850;2023-01-10T08:57:43;10.20;;;2.10;;
3941;SDS011;1985;48.592;8.850;2023-01-10T09:00:09;10.23;;;1.70;;
3941;SDS011;1985;48.592;8.850;2023-01-10T09:02:36;9.35;;;1.42;;
3941;SDS011;1985;48.592;8.850;2023-01-10T09:05:03;11.55;;;1.70;;
3941;SDS011;1985;48.592;8.850;2023-01-10T09:07:29;10.77;;;1.80;;
3941;SDS011;1985;48.592;8.850;2023-01-10T09:09:55;11.00;;;2.13;;
3941;SDS011;1985;48.592;8.850;2023-01-10T09:12:20;14.32;;;2.30;;
3941;SDS011;1985;48.592;8.850;2023-01-10T09:15:04;12.13;;;2.30;;
3941;SDS011;1985;48.592;8.850;2023-01-10T09:17:31;11.60;;;1.70;;
3941;SDS011;1985;48.592;8.850;2023-01-10T09:19:56;15.02;;;1.85;;
3941;SDS011;1985;48.592;8.850;2023-01-10T09:22:22;9.77;;;1.63;;
3941;SDS011;1985;48.592;8.850;2023-01-10T09:24:47;15.00;;;1.87;;
3941;SDS011;1985;48.592;8.850;2023-01-10T09:27:13;10.63;;;1.80;;
3941;SDS011;1985;48.592;8.850;2023-01-10T09:29:39;12.57;;;1.60;;
3941;SDS011;1985;48.592;8.850;2023-01-10T09:32:04;13.00;;;2.00;;
3941;SDS011;1985;48.592;8.850;2023-01-10T09:34:30;12.77;;;2.17;;
3941;SDS011;1985;48.592;8.850;2023-01-10T09:36:56;10.60;;;1.93;;
3941;SDS011;1985;48.592;8.850;2023-01-10T09:39:21;14.50;;;2.70;;
3941;SDS011;1985;48.592;8.850;2023-01-10T09:41:50;11.35;;;1.30;;
3941;SDS011;1985;48.592;8.850;2023-01-10T09:44:49;9.90;;;1.50;;
3941;SDS011;1985;48.592;8.850;2023-01-10T09:52:43;10.90;;;2.10;;
3941;SDS011;1985;48.592;8.850;2023-01-10T09:55:24;11.25;;;1.52;;
3941;SDS011;1985;48.592;8.850;2023-01-10T09:57:55;9.30;;;1.40;;
3941;SDS011;1985;48.592;8.850;2023-01-10T10:00:34;12.20;;;1.70;;
3941;SDS011;1985;48.592;8.850;2023-01-10T10:03:16;11.38;;;1.70;;
3941;SDS011;1985;48.592;8.850;2023-01-10T10:05:52;8.52;;;1.30;;
3941;SDS011;1985;48.592;8.850;2023-01-10T10:08:18;9.98;;;1.67;;
3941;SDS011;1985;48.592;8.850;2023-01-10T10:10:57;10.48;;;1.40;;
3941;SDS011;1985;48.592;8.850;2023-01-10T10:22:21;15.10;;;1.83;;
3941;SDS011;1985;48.592;8.850;2023-01-10T10:30:51;11.63;;;1.40;;
3941;SDS011;1985;48.592;8.850;2023-01-10T10:35:58;13.03;;;1.60;;
3941;SDS011;1985;48.592;8.850;2023-01-10T10:38:29;14.38;;;1.70;;
3941;SDS011;1985;48.592;8.850;2023-01-10T10:41:03;10.60;;;1.60;;
3941;SDS011;1985;48.592;8.850;2023-01-10T10:43:52;9.45;;;1.45;;
3941;SDS011;1985;48.592;8.850;2023-01-10T10:46:18;13.95;;;2.03;;
3941;SDS011;1985;48.592;8.850;2023-01-10T10:48:56;11.32;;;1.52;;
3941;SDS011;1985;48.592;8.850;2023-01-10T10:54:06;8.82;;;1.20;;
3941;SDS011;1985;48.592;8.850;2023-01-10T10:56:36;11.52;;;1.70;;
3941;SDS011;1985;48.592;8.850;2023-01-10T10:59:02;9.70;;;1.40;;
3941;SDS011;1985;48.592;8.850;2023-01-10T11:01:29;10.70;;;1.20;;
3941;SDS011;1985;48.592;8.850;2023-01-10T11:03:59;10.65;;;1.30;;
3941;SDS011;1985;48.592;8.850;2023-01-10T11:06:28;11.52;;;1.52;;
3941;SDS011;1985;48.592;8.850;2023-01-10T11:08:59;11.13;;;1.30;;
3941;SDS011;1985;48.592;8.850;2023-01-10T11:11:28;10.00;;;1.70;;
3941;SDS011;1985;48.592;8.850;2023-01-10T11:14:00;11.93;;;1.40;;
3941;SDS011;1985;48.592;8.850;2023-01-10T11:16:31;11.98;;;1.30;;
3941;SDS011;1985;48.592;8.850;2023-01-10T11:21:33;10.60;;;1.55;;
3941;SDS011;1985;48.592;8.850;2023-01-10T11:23:59;9.85;;;1.25;;
3941;SDS011;1985;48.592;8.850;2023-01-10T11:26:26;10.73;;;1.30;;
3941;SDS011;1985;48.592;8.850;2023-01-10T11:29:08;9.98;;;1.40;;
3941;SDS011;1985;48.592;8.850;2023-01-10T11:31:55;13.35;;;1.40;;
3941;SDS011;1985;48.592;8.850;2023-01-10T11:34:22;12.80;;;1.40;;
3941;SDS011;1985;48.592;8.850;2023-01-10T11:39:18;11.98;;;1.45;;
3941;SDS011;1985;48.592;8.850;2023-01-10T11:41:43;9.38;;;1.35;;
3941;SDS011;1985;48.592;8.850;2023-01-10T11:44:16;11.30;;;1.70;;
3941;SDS011;1985;48.592;8.850;2023-01-10T11:46:48;9.43;;;1.58;;
3941;SDS011;1985;48.592;8.850;2023-01-10T11:49:20;13.23;;;1.30;;
3941;SDS011;1985;48.592;8.850;2023-01-10T11:51:54;11.10;;;1.42;;
3941;SDS011;1985;48.592;8.850;2023-01-10T11:54:27;14.40;;;1.23;;
3941;SDS011;1985;48.592;8.850;2023-01-10T11:56:57;13.02;;;1.42;;
3941;SDS011;1985;48.592;8.850;2023-01-10T11:59:33;14.10;;;1.90;;
3941;SDS011;1985;48.592;8.850;2023-01-10T12:04:29;12.57;;;1.50;;
3941;SDS011;1985;48.592;8.850;2023-01-10T12:07:07;10.93;;;1.90;;
3941;SDS011;1985;48.592;8.850;2023-01-10T12:12:33;10.00;;;1.50;;
3941;SDS011;1985;48.592;8.850;2023-01-10T12:17:55;11.05;;;1.52;;
3941;SDS011;1985;48.592;8.850;2023-01-10T12:20:24;12.70;;;1.60;;
3941;SDS011;1985;48.592;8.850;2023-01-10T12:23:00;10.82;;;1.10;;
3941;SDS011;1985;48.592;8.850;2023-01-10T12:27:57;16.77;;;1.90;;
3941;SDS011;1985;48.592;8.850;2023-01-10T12:30:32;14.77;;;1.80;;
3941;SDS011;1985;48.592;8.850;2023-01-10T12:33:05;9.50;;;1.40;;
3941;SDS011;1985;48.592;8.850;2023-01-10T12:40:46;15.70;;;1.80;;
3941;SDS011;1985;48.592;8.850;2023-01-10T12:43:17;11.73;;;1.55;;
3941;SDS011;1985;48.592;8.850;2023-01-10T12:46:13;13.85;;;1.30;;
3941;SDS011;1985;48.592;8.850;2023-01-10T12:51:44;11.55;;;1.50;;
3941;SDS011;1985;48.592;8.850;2023-01-10T12:54:20;18.90;;;2.08;;
3941;SDS011;1985;48.592;8.850;2023-01-10T12:56:49;10.90;;;1.30;;
3941;SDS011;1985;48.592;8.850;2023-01-10T13:02:01;11.90;;;1.40;;
3941;SDS011;1985;48.592;8.850;2023-01-10T13:04:53;11.75;;;1.50;;
3941;SDS011;1985;48.592;8.850;2023-01-10T13:07:23;14.40;;;1.70;;
3941;SDS011;1985;48.592;8.850;2023-01-10T13:09:53;10.10;;;1.33;;
3941;SDS011;1985;48.592;8.850;2023-01-10T13:12:25;11.98;;;1.40;;
3941;SDS011;1985;48.592;8.850;2023-01-10T13:22:40;12.90;;;1.50;;
3941;SDS011;1985;48.592;8.850;2023-01-10T13:25:20;9.93;;;1.20;;
3941;SDS011;1985;48.592;8.850;2023-01-10T13:27:56;16.10;;;1.50;;
3941;SDS011;1985;48.592;8.850;2023-01-10T13:30:42;9.15;;;1.20;;
3941;SDS011;1985;48.592;8.850;2023-01-10T13:33:22;15.00;;;1.73;;
3941;SDS011;1985;48.592;8.850;2023-01-10T13:35:50;12.00;;;1.80;;
3941;SDS011;1985;48.592;8.850;2023-01-10T13:38:19;14.02;;;1.73;;
3941;SDS011;1985;48.592;8.850;2023-01-10T13:49:37;11.40;;;1.50;;
3941;SDS011;1985;48.592;8.850;2023-01-10T13:51:27;13.88;;;1.60;;
3941;SDS011;1985;48.592;8.850;2023-01-10T13:53:57;12.02;;;1.80;;
3941;SDS011;1985;48.592;8.850;2023-01-10T13:58:59;11.00;;;1.70;;
3941;SDS011;1985;48.592;8.850;2023-01-10T14:01:48;13.82;;;1.70;;
3941;SDS011;1985;48.592;8.850;2023-01-10T14:04:36;10.15;;;1.42;;
3941;SDS011;1985;48.592;8.850;2023-01-10T14:07:20;9.45;;;1.35;;
3941;SDS011;1985;48.592;8.850;2023-01-10T14:09:52;10.85;;;1.48;;
3941;SDS011;1985;48.592;8.850;2023-01-10T14:12:48;14.32;;;1.83;;
3941;SDS011;1985;48.592;8.850;2023-01-10T14:15:30;9.40;;;1.50;;
3941;SDS011;1985;48.592;8.850;2023-01-10T14:18:02;11.68;;;1.70;;
3941;SDS011;1985;48.592;8.850;2023-01-10T14:20:42;10.45;;;1.63;;
3941;SDS011;1985;48.592;8.850;2023-01-10T14:25:41;10.35;;;1.50;;
3941;SDS011;1985;48.592;8.850;2023-01-10T14:28:15;15.75;;;1.67;;
3941;SDS011;1985;48.592;8.850;2023-01-10T14:30:55;11.48;;;1.40;;
3941;SDS011;1985;48.592;8.850;2023-01-10T14:33:23;10.80;;;1.50;;
3941;SDS011;1985;48.592;8.850;2023-01-10T14:35:50;13.48;;;1.30;;
3941;SDS011;1985;48.592;8.850;2023-01-10T14:38:33;12.38;;;1.40;;
3941;SDS011;1985;48.592;8.850;2023-01-10T14:41:02;11.70;;;1.60;;
3941;SDS011;1985;48.592;8.850;2023-01-10T14:43:42;15.10;;;1.75;;
3941;SDS011;1985;48.592;8.850;2023-01-10T14:46:16;11.63;;;1.35;;
3941;SDS011;1985;48.592;8.850;2023-01-10T14:48:49;13.25;;;1.88;;
3941;SDS011;1985;48.592;8.850;2023-01-10T14:51:19;15.50;;;2.17;;
3941;SDS011;1985;48.592;8.850;2023-01-10T15:05:10;10.70;;;1.60;;
3941;SDS011;1985;48.592;8.850;2023-01-10T15:07:42;14.88;;;1.60;;
3941;SDS011;1985;48.592;8.850;2023-01-10T15:10:19;12.52;;;1.33;;
3941;SDS011;1985;48.592;8.850;2023-01-10T15:12:55;8.65;;;1.25;;
3941;SDS011;1985;48.592;8.850;2023-01-10T15:15:41;13.63;;;2.20;;
3941;SDS011;1985;48.592;8.850;2023-01-10T15:18:33;13.55;;;2.20;;
3941;SDS011;1985;48.592;8.850;2023-01-10T15:21:01;14.50;;;1.50;;
3941;SDS011;1985;48.592;8.850;2023-01-10T15:23:34;11.82;;;1.92;;
3941;SDS011;1985;48.592;8.850;2023-01-10T15:26:02;11.63;;;1.48;;
3941;SDS011;1985;48.592;8.850;2023-01-10T15:28:38;14.95;;;1.50;;
3941;SDS011;1985;48.592;8.850;2023-01-10T15:31:04;10.55;;;1.60;;
3941;SDS011;1985;48.592;8.850;2023-01-10T15:33:33;14.40;;;1.40;;
3941;SDS011;1985;48.592;8.850;2023-01-10T15:36:04;16.08;;;1.70;;
3941;SDS011;1985;48.592;8.850;2023-01-10T15:38:44;30.10;;;1.77;;
3941;SDS011;1985;48.592;8.850;2023-01-10T15:41:15;12.85;;;1.88;;
3941;SDS011;1985;48.592;8.850;2023-01-10T15:43:43;18.35;;;1.80;;
3941;SDS011;1985;48.592;8.850;2023-01-10T15:46:16;12.88;;;1.80;;
3941;SDS011;1985;48.592;8.850;2023-01-10T15:48:54;10.38;;;1.42;;
3941;SDS011;1985;48.592;8.850;2023-01-10T15:51:27;11.83;;;2.00;;
3941;SDS011;1985;48.592;8.850;2023-01-10T15:53:55;13.80;;;1.85;;
3941;SDS011;1985;48.592;8.850;2023-01-10T15:59:04;11.87;;;1.90;;
3941;SDS011;1985;48.592;8.850;2023-01-10T16:01:53;11.50;;;2.30;;
3941;SDS011;1985;48.592;8.850;2023-01-10T16:04:24;10.93;;;1.80;;
3941;SDS011;1985;48.592;8.850;2023-01-10T16:06:51;11.30;;;1.85;;
3941;SDS011;1985;48.592;8.850;2023-01-10T16:09:28;10.35;;;1.73;;
3941;SDS011;1985;48.592;8.850;2023-01-10T16:11:55;11.18;;;1.95;;
3941;SDS011;1985;48.592;8.850;2023-01-10T16:14:39;15.48;;;2.55;;
3941;SDS011;1985;48.592;8.850;2023-01-10T16:17:05;10.45;;;1.73;;
3941;SDS011;1985;48.592;8.850;2023-01-10T16:19:31;15.43;;;2.15;;
3941;SDS011;1985;48.592;8.850;2023-01-10T16:21:57;12.68;;;2.13;;
3941;SDS011;1985;48.592;8.850;2023-01-10T16:24:27;15.10;;;2.47;;
3941;SDS011;1985;48.592;8.850;2023-01-10T16:26:55;12.10;;;2.10;;
3941;SDS011;1985;48.592;8.850;2023-01-10T16:29:22;12.88;;;2.83;;
3941;SDS011;1985;48.592;8.850;2023-01-10T16:31:48;12.63;;;2.33;;
3941;SDS011;1985;48.592;8.850;2023-01-10T16:34:16;10.90;;;2.13;;
3941;SDS011;1985;48.592;8.850;2023-01-10T16:36:42;11.90;;;2.60;;
3941;SDS011;1985;48.592;8.850;2023-01-10T16:39:21;13.80;;;2.60;;
3941;SDS011;1985;48.592;8.850;2023-01-10T16:41:47;9.93;;;1.95;;
3941;SDS011;1985;48.592;8.850;2023-01-10T16:44:32;12.93;;;2.72;;
3941;SDS011;1985;48.592;8.850;2023-01-10T16:46:58;14.20;;;3.10;;
3941;SDS011;1985;48.592;8.850;2023-01-10T16:49:24;13.27;;;2.95;;
3941;SDS011;1985;48.592;8.850;2023-01-10T16:51:50;10.85;;;2.42;;
3941;SDS011;1985;48.592;8.850;2023-01-10T16:54:17;11.27;;;2.95;;
3941;SDS011;1985;48.592;8.850;2023-01-10T16:56:49;11.80;;;2.60;;
3941;SDS011;1985;48.592;8.850;2023-01-10T16:59:14;13.07;;;2.60;;
3941;SDS011;1985;48.592;8.850;2023-01-10T17:01:48;11.23;;;2.00;;
3941;SDS011;1985;48.592;8.850;2023-01-10T17:04:18;14.32;;;2.40;;
3941;SDS011;1985;48.592;8.850;2023-01-10T17:06:46;14.57;;;2.65;;
3941;SDS011;1985;48.592;8.850;2023-01-10T17:09:14;18.60;;;2.45;;
3941;SDS011;1985;48.592;8.850;2023-01-10T17:11:46;17.23;;;2.73;;
3941;SDS011;1985;48.592;8.850;2023-01-10T17:14:14;12.32;;;2.08;;
3941;SDS011;1985;48.592;8.850;2023-01-10T17:16:41;13.20;;;2.60;;
3941;SDS011;1985;48.592;8.850;2023-01-10T17:19:06;12.05;;;2.50;;
3941;SDS011;1985;48.592;8.850;2023-01-10T17:21:32;16.83;;;4.15;;
3941;SDS011;1985;48.592;8.850;2023-01-10T17:23:58;14.27;;;5.10;;
3941;SDS011;1985;48.592;8.850;2023-01-10T17:26:23;15.90;;;2.72;;
3941;SDS011;1985;48.592;8.850;2023-01-10T17:28:49;14.80;;;2.40;;